createdAt,value
2018-02-13T00:00:43.614Z,936.69
2018-02-13T00:01:43.607Z,936.69
2018-02-13T00:02:43.597Z,936.69
2018-02-13T00:03:43.588Z,936.68
2018-02-13T00:04:43.581Z,936.66
2018-02-13T00:05:43.572Z,936.63
2018-02-13T00:06:43.563Z,936.64
2018-02-13T00:07:43.555Z,936.63
2018-02-13T00:08:43.547Z,936.65
2018-02-13T00:09:43.537Z,936.64
2018-02-13T00:10:43.528Z,936.64
2018-02-13T00:11:43.521Z,936.62
2018-02-13T00:12:43.512Z,936.63
2018-02-13T00:13:43.505Z,936.65
2018-02-13T00:14:43.494Z,936.62
2018-02-13T00:15:43.486Z,936.65
2018-02-13T00:16:43.479Z,936.65
2018-02-13T00:17:43.471Z,936.64
2018-02-13T00:18:43.461Z,936.69
2018-02-13T00:19:43.452Z,936.66
2018-02-13T00:20:43.445Z,936.63
2018-02-13T00:21:43.435Z,936.60
2018-02-13T00:22:43.426Z,936.63
2018-02-13T00:23:43.419Z,936.64
2018-02-13T00:24:43.411Z,936.63
2018-02-13T00:25:43.408Z,936.65
2018-02-13T00:26:43.393Z,936.67
2018-02-13T00:27:43.385Z,936.66
2018-02-13T00:28:43.375Z,936.63
2018-02-13T00:29:43.367Z,936.65
2018-02-13T00:30:43.357Z,936.60
2018-02-13T00:31:43.350Z,936.63
2018-02-13T00:32:43.341Z,936.61
2018-02-13T00:33:43.333Z,936.61
2018-02-13T00:34:43.324Z,936.58
2018-02-13T00:35:43.315Z,936.59
2018-02-13T00:36:43.308Z,936.59
2018-02-13T00:37:43.300Z,936.55
2018-02-13T00:38:43.290Z,936.59
2018-02-13T00:39:43.282Z,936.60
2018-02-13T00:40:43.273Z,936.56
2018-02-13T00:41:43.265Z,936.62
2018-02-13T00:42:43.255Z,936.60
2018-02-13T00:43:43.247Z,936.61
2018-02-13T00:44:43.239Z,936.66
2018-02-13T00:45:43.231Z,936.64
2018-02-13T00:46:43.222Z,936.60
2018-02-13T00:47:43.212Z,936.63
2018-02-13T00:48:43.205Z,936.64
2018-02-13T00:49:43.196Z,936.59
2018-02-13T00:50:43.187Z,936.61
2018-02-13T00:51:43.179Z,936.65
2018-02-13T00:52:43.171Z,936.59
2018-02-13T00:53:43.163Z,936.62
2018-02-13T00:54:43.153Z,936.63
2018-02-13T00:55:43.144Z,936.60
2018-02-13T00:56:43.136Z,936.63
2018-02-13T00:57:43.127Z,936.61
2018-02-13T00:58:43.120Z,936.62
2018-02-13T00:59:43.111Z,936.63
2018-02-13T01:00:43.103Z,936.64
2018-02-13T01:01:43.092Z,936.61
2018-02-13T01:02:43.085Z,936.60
2018-02-13T01:03:43.077Z,936.61
2018-02-13T01:04:43.066Z,936.60
2018-02-13T01:05:43.060Z,936.64
2018-02-13T01:06:43.050Z,936.61
2018-02-13T01:07:43.042Z,936.61
2018-02-13T01:08:43.034Z,936.57
2018-02-13T01:09:43.026Z,936.62
2018-02-13T01:10:43.017Z,936.63
2018-02-13T01:11:43.007Z,936.62
2018-02-13T01:12:43.000Z,936.62
2018-02-13T01:13:42.991Z,936.59
2018-02-13T01:14:42.982Z,936.61
2018-02-13T01:15:42.974Z,936.55
2018-02-13T01:16:42.966Z,936.54
2018-02-13T01:17:42.963Z,936.51
2018-02-13T01:18:42.949Z,936.53
2018-02-13T01:19:42.940Z,936.49
2018-02-13T01:20:42.932Z,936.51
2018-02-13T01:21:42.924Z,936.47
2018-02-13T01:22:42.915Z,936.48
2018-02-13T01:23:42.905Z,936.47
2018-02-13T01:24:42.898Z,936.44
2018-02-13T01:25:42.890Z,936.47
2018-02-13T01:26:42.880Z,936.48
2018-02-13T01:27:42.873Z,936.46
2018-02-13T01:28:42.864Z,936.49
2018-02-13T01:29:42.856Z,936.49
2018-02-13T01:30:42.846Z,936.47
2018-02-13T01:31:42.838Z,936.51
2018-02-13T01:32:42.828Z,936.48
2018-02-13T01:33:42.820Z,936.48
2018-02-13T01:34:42.812Z,936.45
2018-02-13T01:35:42.804Z,936.45
2018-02-13T01:36:42.796Z,936.48
2018-02-13T01:37:42.790Z,936.47
2018-02-13T01:38:42.778Z,936.51
2018-02-13T01:39:42.769Z,936.50
2018-02-13T01:40:42.760Z,936.50
2018-02-13T01:41:42.759Z,936.46
2018-02-13T01:42:42.747Z,936.50
2018-02-13T01:43:42.736Z,936.47
2018-02-13T01:44:42.726Z,936.48
2018-02-13T01:45:42.720Z,936.47
2018-02-13T01:46:42.709Z,936.51
2018-02-13T01:47:42.701Z,936.47
2018-02-13T01:48:42.692Z,936.43
2018-02-13T01:49:42.684Z,936.42
2018-02-13T01:50:42.675Z,936.43
2018-02-13T01:51:42.667Z,936.44
2018-02-13T01:52:42.660Z,936.42
2018-02-13T01:53:42.652Z,936.43
2018-02-13T01:54:42.643Z,936.43
2018-02-13T01:55:42.633Z,936.40
2018-02-13T01:56:42.625Z,936.41
2018-02-13T01:57:42.618Z,936.38
2018-02-13T01:58:42.609Z,936.40
2018-02-13T01:59:42.599Z,936.35
2018-02-13T02:00:42.592Z,936.34
2018-02-13T02:01:42.583Z,936.34
2018-02-13T02:02:42.574Z,936.33
2018-02-13T02:03:42.566Z,936.33
2018-02-13T02:04:42.558Z,936.36
2018-02-13T02:05:42.550Z,936.40
2018-02-13T02:06:42.541Z,936.38
2018-02-13T02:07:42.532Z,936.37
2018-02-13T02:08:42.525Z,936.39
2018-02-13T02:09:42.515Z,936.36
2018-02-13T02:10:42.508Z,936.32
2018-02-13T02:11:42.498Z,936.35
2018-02-13T02:12:42.490Z,936.35
2018-02-13T02:13:42.482Z,936.32
2018-02-13T02:14:42.472Z,936.36
2018-02-13T02:15:42.465Z,936.32
2018-02-13T02:16:42.457Z,936.31
2018-02-13T02:17:42.448Z,936.31
2018-02-13T02:18:42.437Z,936.29
2018-02-13T02:19:42.430Z,936.24
2018-02-13T02:20:42.421Z,936.28
2018-02-13T02:21:42.414Z,936.26
2018-02-13T02:22:42.410Z,936.22
2018-02-13T02:23:42.404Z,936.21
2018-02-13T02:24:42.387Z,936.19
2018-02-13T02:25:42.378Z,936.18
2018-02-13T02:26:42.370Z,936.18
2018-02-13T02:27:42.361Z,936.15
2018-02-13T02:28:42.353Z,936.16
2018-02-13T02:29:42.344Z,936.18
2018-02-13T02:30:42.335Z,936.20
2018-02-13T02:31:42.328Z,936.12
2018-02-13T02:32:42.320Z,936.17
2018-02-13T02:33:42.311Z,936.15
2018-02-13T02:34:42.301Z,936.15
2018-02-13T02:35:42.295Z,936.13
2018-02-13T02:36:42.285Z,936.16
2018-02-13T02:37:42.276Z,936.15
2018-02-13T02:38:42.267Z,936.13
2018-02-13T02:39:42.259Z,936.16
2018-02-13T02:40:42.252Z,936.11
2018-02-13T02:41:42.243Z,936.13
2018-02-13T02:42:42.233Z,936.08
2018-02-13T02:43:42.226Z,936.12
2018-02-13T02:44:42.218Z,936.13
2018-02-13T02:45:42.208Z,936.06
2018-02-13T02:46:42.199Z,936.10
2018-02-13T02:47:42.191Z,936.11
2018-02-13T02:48:42.182Z,936.07
2018-02-13T02:49:42.175Z,936.09
2018-02-13T02:50:42.164Z,936.06
2018-02-13T02:51:42.157Z,936.04
2018-02-13T02:52:42.149Z,936.06
2018-02-13T02:53:42.140Z,936.06
2018-02-13T02:54:42.134Z,936.04
2018-02-13T02:55:42.126Z,936.03
2018-02-13T02:56:42.114Z,936.00
2018-02-13T02:57:42.112Z,936.00
2018-02-13T02:58:42.096Z,936.00
2018-02-13T02:59:42.091Z,936.00
2018-02-13T03:00:42.079Z,936.01
2018-02-13T03:01:42.073Z,935.97
2018-02-13T03:02:42.063Z,936.00
2018-02-13T03:03:42.054Z,935.97
2018-02-13T03:04:42.046Z,935.94
2018-02-13T03:05:42.038Z,935.96
2018-02-13T03:06:42.029Z,935.95
2018-02-13T03:07:42.020Z,935.93
2018-02-13T03:08:42.011Z,935.98
2018-02-13T03:09:42.003Z,935.96
2018-02-13T03:10:41.995Z,935.96
2018-02-13T03:11:41.986Z,935.96
2018-02-13T03:12:41.979Z,935.97
2018-02-13T03:13:41.969Z,935.95
2018-02-13T03:14:41.959Z,935.94
2018-02-13T03:15:41.951Z,935.96
2018-02-13T03:16:41.944Z,935.93
2018-02-13T03:17:41.935Z,935.90
2018-02-13T03:18:41.926Z,935.91
2018-02-13T03:19:41.919Z,935.92
2018-02-13T03:20:41.909Z,935.92
2018-02-13T03:21:41.901Z,935.89
2018-02-13T03:22:41.891Z,935.87
2018-02-13T03:23:41.883Z,935.90
2018-02-13T03:24:41.878Z,935.90
2018-02-13T03:25:41.868Z,935.89
2018-02-13T03:26:41.857Z,935.93
2018-02-13T03:27:41.897Z,935.90
2018-02-13T03:28:41.840Z,935.93
2018-02-13T03:29:41.832Z,935.91
2018-02-13T03:30:41.823Z,935.90
2018-02-13T03:31:41.815Z,935.89
2018-02-13T03:32:41.806Z,935.87
2018-02-13T03:33:41.799Z,935.86
2018-02-13T03:34:41.793Z,935.82
2018-02-13T03:35:41.782Z,935.84
2018-02-13T03:36:41.772Z,935.83
2018-02-13T03:37:41.765Z,935.86
2018-02-13T03:38:41.755Z,935.86
2018-02-13T03:39:41.746Z,935.86
2018-02-13T03:40:41.740Z,935.85
2018-02-13T03:41:41.731Z,935.84
2018-02-13T03:42:41.722Z,935.89
2018-02-13T03:43:41.713Z,935.84
2018-02-13T03:44:41.704Z,935.88
2018-02-13T03:45:41.696Z,935.82
2018-02-13T03:46:41.692Z,935.84
2018-02-13T03:47:41.678Z,935.85
2018-02-13T03:48:41.671Z,935.82
2018-02-13T03:49:41.662Z,935.83
2018-02-13T03:50:41.653Z,935.81
2018-02-13T03:51:41.644Z,935.81
2018-02-13T03:52:41.636Z,935.82
2018-02-13T03:53:41.629Z,935.79
2018-02-13T03:54:41.620Z,935.83
2018-02-13T03:55:41.611Z,935.84
2018-02-13T03:56:41.603Z,935.83
2018-02-13T03:57:41.595Z,935.82
2018-02-13T03:58:41.585Z,935.81
2018-02-13T03:59:41.577Z,935.81
2018-02-13T04:00:41.569Z,935.80
2018-02-13T04:01:41.561Z,935.80
2018-02-13T04:02:41.551Z,935.77
2018-02-13T04:03:41.543Z,935.81
2018-02-13T04:04:41.535Z,935.74
2018-02-13T04:05:41.537Z,935.78
2018-02-13T04:06:41.517Z,935.77
2018-02-13T04:07:41.510Z,935.78
2018-02-13T04:08:41.501Z,935.77
2018-02-13T04:09:41.493Z,935.75
2018-02-13T04:10:41.483Z,935.78
2018-02-13T04:11:41.475Z,935.77
2018-02-13T04:12:41.467Z,935.77
2018-02-13T04:13:41.460Z,935.77
2018-02-13T04:14:41.449Z,935.76
2018-02-13T04:15:41.442Z,935.78
2018-02-13T04:16:41.434Z,935.79
2018-02-13T04:17:41.426Z,935.76
2018-02-13T04:18:41.417Z,935.76
2018-02-13T04:19:41.408Z,935.75
2018-02-13T04:20:41.400Z,935.77
2018-02-13T04:21:41.392Z,935.79
2018-02-13T04:22:41.383Z,935.76
2018-02-13T04:23:41.375Z,935.77
2018-02-13T04:24:41.367Z,935.78
2018-02-13T04:25:41.358Z,935.71
2018-02-13T04:26:41.351Z,935.75
2018-02-13T04:27:41.341Z,935.79
2018-02-13T04:28:41.334Z,935.80
2018-02-13T04:29:41.361Z,935.79
2018-02-13T04:30:41.318Z,935.74
2018-02-13T04:31:41.308Z,935.76
2018-02-13T04:32:41.300Z,935.78
2018-02-13T04:33:41.292Z,935.78
2018-02-13T04:34:41.283Z,935.80
2018-02-13T04:35:41.277Z,935.79
2018-02-13T04:36:41.266Z,935.80
2018-02-13T04:37:41.259Z,935.76
2018-02-13T04:38:41.249Z,935.78
2018-02-13T04:39:41.241Z,935.79
2018-02-13T04:40:41.234Z,935.79
2018-02-13T04:41:41.226Z,935.82
2018-02-13T04:42:41.216Z,935.80
2018-02-13T04:43:41.210Z,935.81
2018-02-13T04:44:41.200Z,935.78
2018-02-13T04:45:41.193Z,935.80
2018-02-13T04:46:41.183Z,935.82
2018-02-13T04:47:41.175Z,935.78
2018-02-13T04:48:41.167Z,935.83
2018-02-13T04:49:41.160Z,935.85
2018-02-13T04:50:41.149Z,935.80
2018-02-13T04:51:41.142Z,935.78
2018-02-13T04:52:41.134Z,935.80
2018-02-13T04:53:41.125Z,935.80
2018-02-13T04:54:41.116Z,935.83
2018-02-13T04:55:41.116Z,935.77
2018-02-13T04:56:41.102Z,935.75
2018-02-13T04:57:41.093Z,935.73
2018-02-13T04:58:41.084Z,935.73
2018-02-13T04:59:41.077Z,935.74
2018-02-13T05:00:41.068Z,935.73
2018-02-13T05:01:41.059Z,935.74
2018-02-13T05:02:41.050Z,935.71
2018-02-13T05:03:41.042Z,935.69
2018-02-13T05:04:41.038Z,935.74
2018-02-13T05:05:41.028Z,935.70
2018-02-13T05:06:41.018Z,935.69
2018-02-13T05:07:41.010Z,935.72
2018-02-13T05:08:41.001Z,935.70
2018-02-13T05:09:40.993Z,935.72
2018-02-13T05:10:40.984Z,935.75
2018-02-13T05:11:40.979Z,935.73
2018-02-13T05:12:40.968Z,935.74
2018-02-13T05:13:40.959Z,935.74
2018-02-13T05:14:40.949Z,935.74
2018-02-13T05:15:40.944Z,935.76
2018-02-13T05:16:40.933Z,935.69
2018-02-13T05:17:40.925Z,935.73
2018-02-13T05:18:40.917Z,935.72
2018-02-13T05:19:40.936Z,935.77
2018-02-13T05:20:40.902Z,935.76
2018-02-13T05:21:40.892Z,935.79
2018-02-13T05:22:40.883Z,935.75
2018-02-13T05:23:40.876Z,935.76
2018-02-13T05:24:40.867Z,935.81
2018-02-13T05:25:40.858Z,935.81
2018-02-13T05:26:40.850Z,935.80
2018-02-13T05:27:40.842Z,935.82
2018-02-13T05:28:40.834Z,935.79
2018-02-13T05:29:40.832Z,935.79
2018-02-13T05:30:40.819Z,935.78
2018-02-13T05:31:40.806Z,935.80
2018-02-13T05:32:40.800Z,935.77
2018-02-13T05:33:40.791Z,935.75
2018-02-13T05:34:40.782Z,935.76
2018-02-13T05:35:40.775Z,935.75
2018-02-13T05:36:40.767Z,935.78
2018-02-13T05:37:40.757Z,935.78
2018-02-13T05:38:40.752Z,935.77
2018-02-13T05:39:40.740Z,935.79
2018-02-13T05:40:40.733Z,935.79
2018-02-13T05:41:40.724Z,935.79
2018-02-13T05:42:40.757Z,935.82
2018-02-13T05:43:40.706Z,935.79
2018-02-13T05:44:40.698Z,935.78
2018-02-13T05:45:40.690Z,935.74
2018-02-13T05:46:40.680Z,935.78
2018-02-13T05:47:40.672Z,935.74
2018-02-13T05:48:40.663Z,935.79
2018-02-13T05:49:40.655Z,935.75
2018-02-13T05:50:40.647Z,935.76
2018-02-13T05:51:40.638Z,935.74
2018-02-13T05:52:40.629Z,935.76
2018-02-13T05:53:40.621Z,935.79
2018-02-13T05:54:40.611Z,935.75
2018-02-13T05:55:40.603Z,935.76
2018-02-13T05:56:40.595Z,935.78
2018-02-13T05:57:40.586Z,935.76
2018-02-13T05:58:40.577Z,935.77
2018-02-13T05:59:40.570Z,935.76
2018-02-13T06:00:40.601Z,935.77
2018-02-13T06:01:40.551Z,935.78
2018-02-13T06:02:40.544Z,935.76
2018-02-13T06:03:40.535Z,935.73
2018-02-13T06:04:40.530Z,935.79
2018-02-13T06:05:40.518Z,935.73
2018-02-13T06:06:40.511Z,935.77
2018-02-13T06:07:40.500Z,935.78
2018-02-13T06:08:40.491Z,935.77
2018-02-13T06:09:40.483Z,935.78
2018-02-13T06:10:40.474Z,935.76
2018-02-13T06:11:40.466Z,935.75
2018-02-13T06:12:40.457Z,935.77
2018-02-13T06:13:40.449Z,935.78
2018-02-13T06:14:40.439Z,935.76
2018-02-13T06:15:40.430Z,935.72
2018-02-13T06:16:40.423Z,935.76
2018-02-13T06:17:40.414Z,935.73
2018-02-13T06:18:40.409Z,935.74
2018-02-13T06:19:40.398Z,935.78
2018-02-13T06:20:40.388Z,935.74
2018-02-13T06:21:40.379Z,935.72
2018-02-13T06:22:40.369Z,935.75
2018-02-13T06:23:40.362Z,935.73
2018-02-13T06:24:40.353Z,935.71
2018-02-13T06:25:40.345Z,935.71
2018-02-13T06:26:40.334Z,935.73
2018-02-13T06:27:40.326Z,935.73
2018-02-13T06:28:40.317Z,935.75
2018-02-13T06:29:40.314Z,935.74
2018-02-13T06:30:40.299Z,935.72
2018-02-13T06:31:40.291Z,935.72
2018-02-13T06:32:40.283Z,935.70
2018-02-13T06:33:40.275Z,935.72
2018-02-13T06:34:40.266Z,935.71
2018-02-13T06:35:40.255Z,935.73
2018-02-13T06:36:40.249Z,935.75
2018-02-13T06:37:40.240Z,935.73
2018-02-13T06:38:40.230Z,935.73
2018-02-13T06:39:40.221Z,935.73
2018-02-13T06:40:40.240Z,935.74
2018-02-13T06:41:40.204Z,935.71
2018-02-13T06:42:40.194Z,935.77
2018-02-13T06:43:40.186Z,935.77
2018-02-13T06:44:40.177Z,935.74
2018-02-13T06:45:40.168Z,935.81
2018-02-13T06:46:40.159Z,935.73
2018-02-13T06:47:40.151Z,935.75
2018-02-13T06:48:40.144Z,935.74
2018-02-13T06:49:40.137Z,935.75
2018-02-13T06:50:40.124Z,935.76
2018-02-13T06:51:40.116Z,935.73
2018-02-13T06:52:40.106Z,935.77
2018-02-13T06:53:40.098Z,935.75
2018-02-13T06:54:40.087Z,935.76
2018-02-13T06:55:40.079Z,935.82
2018-02-13T06:56:40.071Z,935.80
2018-02-13T06:57:40.062Z,935.82
2018-02-13T06:58:40.052Z,935.79
2018-02-13T06:59:40.043Z,935.82
2018-02-13T07:00:40.035Z,935.84
2018-02-13T07:01:40.026Z,935.83
2018-02-13T07:02:40.018Z,935.81
2018-02-13T07:03:40.012Z,935.84
2018-02-13T07:04:39.999Z,935.81
2018-02-13T07:05:39.999Z,935.83
2018-02-13T07:06:39.982Z,935.83
2018-02-13T07:07:39.973Z,935.83
2018-02-13T07:08:39.964Z,935.86
2018-02-13T07:09:39.957Z,935.88
2018-02-13T07:10:39.948Z,935.88
2018-02-13T07:11:39.938Z,935.92
2018-02-13T07:12:39.930Z,935.93
2018-02-13T07:13:39.923Z,935.91
2018-02-13T07:14:39.912Z,935.94
2018-02-13T07:15:39.904Z,935.96
2018-02-13T07:16:39.923Z,935.95
2018-02-13T07:17:39.887Z,935.97
2018-02-13T07:18:39.879Z,935.95
2018-02-13T07:19:39.869Z,935.94
2018-02-13T07:20:39.863Z,935.93
2018-02-13T07:21:39.854Z,935.96
2018-02-13T07:22:39.844Z,935.96
2018-02-13T07:23:39.836Z,935.93
2018-02-13T07:24:39.834Z,935.92
2018-02-13T07:25:39.820Z,935.93
2018-02-13T07:26:39.812Z,935.98
2018-02-13T07:27:39.804Z,935.98
2018-02-13T07:28:39.796Z,935.97
2018-02-13T07:29:39.786Z,935.92
2018-02-13T07:30:39.784Z,935.92
2018-02-13T07:31:39.773Z,935.94
2018-02-13T07:32:39.763Z,935.89
2018-02-13T07:33:39.755Z,935.85
2018-02-13T07:34:39.747Z,935.85
2018-02-13T07:35:39.857Z,935.86
2018-02-13T07:36:39.731Z,935.89
2018-02-13T07:37:39.723Z,935.87
2018-02-13T07:38:39.714Z,935.83
2018-02-13T07:39:39.706Z,935.87
2018-02-13T07:40:39.699Z,935.90
2018-02-13T07:41:39.691Z,935.90
2018-02-13T07:42:40.174Z,935.89
2018-02-13T07:43:39.676Z,935.87
2018-02-13T07:44:39.668Z,935.89
2018-02-13T07:45:39.660Z,935.91
2018-02-13T07:46:39.652Z,935.87
2018-02-13T07:47:39.644Z,935.85
2018-02-13T07:48:39.635Z,935.89
2018-02-13T07:49:39.627Z,935.86
2018-02-13T07:50:39.619Z,935.82
2018-02-13T07:51:39.611Z,935.86
2018-02-13T07:52:39.604Z,935.83
2018-02-13T07:53:39.598Z,935.83
2018-02-13T07:54:39.595Z,935.85
2018-02-13T07:55:39.580Z,935.87
2018-02-13T07:56:39.574Z,935.90
2018-02-13T07:57:39.566Z,935.92
2018-02-13T07:58:39.560Z,935.94
2018-02-13T07:59:39.553Z,935.92
2018-02-13T08:00:39.547Z,935.92
2018-02-13T08:01:39.542Z,935.94
2018-02-13T08:02:39.535Z,936.00
2018-02-13T08:03:39.532Z,936.03
2018-02-13T08:04:39.527Z,935.99
2018-02-13T08:05:39.524Z,935.97
2018-02-13T08:06:39.518Z,935.95
2018-02-13T08:07:39.514Z,935.98
2018-02-13T08:08:39.510Z,935.94
2018-02-13T08:09:39.556Z,935.94
2018-02-13T08:10:39.504Z,935.92
2018-02-13T08:11:39.499Z,935.92
2018-02-13T08:12:39.495Z,935.87
2018-02-13T08:13:39.492Z,935.84
2018-02-13T08:14:39.485Z,935.86
2018-02-13T08:15:39.482Z,935.82
2018-02-13T08:16:39.476Z,935.82
2018-02-13T08:17:39.471Z,935.82
2018-02-13T08:18:39.465Z,935.80
2018-02-13T08:19:39.459Z,935.80
2018-02-13T08:20:39.460Z,935.80
2018-02-13T08:21:39.449Z,935.79
2018-02-13T08:22:39.443Z,935.83
2018-02-13T08:23:39.438Z,935.81
2018-02-13T08:24:39.507Z,935.81
2018-02-13T08:25:39.427Z,935.75
2018-02-13T08:26:39.418Z,935.78
2018-02-13T08:27:39.412Z,935.77
2018-02-13T08:28:39.406Z,935.77
2018-02-13T08:29:39.399Z,935.75
2018-02-13T08:30:39.392Z,935.78
2018-02-13T08:31:39.385Z,935.74
2018-02-13T08:32:39.380Z,935.75
2018-02-13T08:33:39.372Z,935.72
2018-02-13T08:34:39.365Z,935.70
2018-02-13T08:35:39.358Z,935.72
2018-02-13T08:36:39.351Z,935.69
2018-02-13T08:37:39.344Z,935.71
2018-02-13T08:38:39.337Z,935.68
2018-02-13T08:39:39.330Z,935.65
2018-02-13T08:40:39.324Z,935.68
2018-02-13T08:41:39.316Z,935.67
2018-02-13T08:42:39.307Z,935.66
2018-02-13T08:43:39.299Z,935.60
2018-02-13T08:44:39.292Z,935.61
2018-02-13T08:45:39.285Z,935.59
2018-02-13T08:46:39.278Z,935.60
2018-02-13T08:47:39.269Z,935.61
2018-02-13T08:48:39.262Z,935.60
2018-02-13T08:49:39.255Z,935.57
2018-02-13T08:50:39.251Z,935.59
2018-02-13T08:51:39.240Z,935.62
2018-02-13T08:52:39.233Z,935.57
2018-02-13T08:53:39.226Z,935.51
2018-02-13T08:54:39.219Z,935.55
2018-02-13T08:55:39.212Z,935.52
2018-02-13T08:56:39.203Z,935.52
2018-02-13T08:57:39.197Z,935.53
2018-02-13T08:58:39.190Z,935.55
2018-02-13T08:59:39.184Z,935.54
2018-02-13T09:00:39.177Z,935.54
2018-02-13T09:01:39.172Z,935.52
2018-02-13T09:02:39.165Z,935.51
2018-02-13T09:03:39.159Z,935.51
2018-02-13T09:04:39.152Z,935.49
2018-02-13T09:05:39.148Z,935.50
2018-02-13T09:06:39.141Z,935.49
2018-02-13T09:07:39.136Z,935.48
2018-02-13T09:08:39.131Z,935.51
2018-02-13T09:09:39.127Z,935.47
2018-02-13T09:10:39.121Z,935.44
2018-02-13T09:11:39.115Z,935.46
2018-02-13T09:12:39.112Z,935.43
2018-02-13T09:13:39.106Z,935.42
2018-02-13T09:14:39.100Z,935.39
2018-02-13T09:15:39.095Z,935.38
2018-02-13T09:16:39.090Z,935.40
2018-02-13T09:17:39.085Z,935.45
2018-02-13T09:18:39.079Z,935.43
2018-02-13T09:19:39.074Z,935.42
2018-02-13T09:20:39.069Z,935.42
2018-02-13T09:21:39.066Z,935.36
2018-02-13T09:22:39.059Z,935.38
2018-02-13T09:23:39.055Z,935.33
2018-02-13T09:24:39.050Z,935.32
2018-02-13T09:25:39.046Z,935.33
2018-02-13T09:26:39.041Z,935.30
2018-02-13T09:27:39.037Z,935.28
2018-02-13T09:28:39.032Z,935.26
2018-02-13T09:29:39.027Z,935.27
2018-02-13T09:30:39.023Z,935.29
2018-02-13T09:31:39.019Z,935.29
2018-02-13T09:32:39.016Z,935.35
2018-02-13T09:33:39.013Z,935.32
2018-02-13T09:34:39.009Z,935.38
2018-02-13T09:35:39.007Z,935.41
2018-02-13T09:36:39.006Z,935.41
2018-02-13T09:37:39.004Z,935.38
2018-02-13T09:38:39.003Z,935.40
2018-02-13T09:39:39.003Z,935.48
2018-02-13T09:40:39.001Z,935.41
2018-02-13T09:41:39.002Z,935.41
2018-02-13T09:42:39.001Z,935.34
2018-02-13T09:43:39.003Z,935.37
2018-02-13T09:44:39.003Z,935.29
2018-02-13T09:45:39.005Z,935.29
2018-02-13T09:46:39.004Z,935.22
2018-02-13T09:47:39.004Z,935.24
2018-02-13T09:48:39.005Z,935.17
2018-02-13T09:49:39.004Z,935.12
2018-02-13T09:50:39.001Z,935.12
2018-02-13T09:51:39.003Z,935.06
2018-02-13T09:52:39.001Z,935.11
2018-02-13T09:53:38.998Z,935.11
2018-02-13T09:54:38.996Z,935.09
2018-02-13T09:55:38.996Z,935.13
2018-02-13T09:56:38.996Z,935.04
2018-02-13T09:57:38.993Z,935.05
2018-02-13T09:58:38.990Z,935.09
2018-02-13T09:59:39.013Z,935.09
2018-02-13T10:00:38.988Z,935.09
2018-02-13T10:01:38.987Z,935.09
2018-02-13T10:02:38.987Z,935.07
2018-02-13T10:03:38.985Z,935.08
2018-02-13T10:04:38.984Z,935.08
2018-02-13T10:05:39.129Z,935.03
2018-02-13T10:06:38.985Z,935.09
2018-02-13T10:07:38.982Z,935.02
2018-02-13T10:08:38.980Z,935.02
2018-02-13T10:09:38.980Z,935.04
2018-02-13T10:10:38.978Z,935.04
2018-02-13T10:11:38.978Z,935.07
2018-02-13T10:12:38.981Z,935.02
2018-02-13T10:13:38.980Z,935.00
2018-02-13T10:14:38.980Z,935.01
2018-02-13T10:15:38.980Z,935.00
2018-02-13T10:16:38.982Z,934.97
2018-02-13T10:17:38.983Z,935.02
2018-02-13T10:18:38.983Z,934.98
2018-02-13T10:19:38.985Z,935.03
2018-02-13T10:20:38.986Z,934.96
2018-02-13T10:21:38.989Z,934.97
2018-02-13T10:22:38.992Z,934.96
2018-02-13T10:23:38.994Z,934.94
2018-02-13T10:24:38.999Z,934.92
2018-02-13T10:25:39.002Z,934.90
2018-02-13T10:26:39.003Z,934.92
2018-02-13T10:27:39.007Z,934.93
2018-02-13T10:28:39.010Z,934.91
2018-02-13T10:29:39.014Z,934.88
2018-02-13T10:30:39.020Z,934.87
2018-02-13T10:31:39.022Z,934.88
2018-02-13T10:32:39.026Z,934.88
2018-02-13T10:33:39.033Z,934.86
2018-02-13T10:34:39.036Z,934.86
2018-02-13T10:35:39.042Z,934.87
2018-02-13T10:36:39.047Z,934.87
2018-02-13T10:37:39.053Z,934.87
2018-02-13T10:38:39.057Z,934.81
2018-02-13T10:39:39.064Z,934.79
2018-02-13T10:40:39.069Z,934.77
2018-02-13T10:41:39.074Z,934.76
2018-02-13T10:42:39.079Z,934.74
2018-02-13T10:43:39.086Z,934.70
2018-02-13T10:44:39.091Z,934.70
2018-02-13T10:45:39.097Z,934.70
2018-02-13T10:46:39.102Z,934.67
2018-02-13T10:47:39.109Z,934.69
2018-02-13T10:48:39.115Z,934.66
2018-02-13T10:49:39.123Z,934.68
2018-02-13T10:50:39.128Z,934.64
2018-02-13T10:51:39.133Z,934.63
2018-02-13T10:52:39.140Z,934.63
2018-02-13T10:53:39.147Z,934.57
2018-02-13T10:54:39.465Z,934.55
2018-02-13T10:55:39.160Z,934.54
2018-02-13T10:56:39.166Z,934.50
2018-02-13T10:57:39.172Z,934.49
2018-02-13T10:58:39.184Z,934.47
2018-02-13T10:59:39.185Z,934.46
2018-02-13T11:00:39.193Z,934.44
2018-02-13T11:01:39.199Z,934.44
2018-02-13T11:02:39.206Z,934.41
2018-02-13T11:03:39.211Z,934.35
2018-02-13T11:04:39.225Z,934.32
2018-02-13T11:05:39.227Z,934.30
2018-02-13T11:06:39.234Z,934.27
2018-02-13T11:07:39.237Z,934.27
2018-02-13T11:08:39.246Z,934.24
2018-02-13T11:09:39.253Z,934.20
2018-02-13T11:10:39.259Z,934.18
2018-02-13T11:11:39.266Z,934.21
2018-02-13T11:12:39.278Z,934.15
2018-02-13T11:13:39.282Z,934.15
2018-02-13T11:14:39.288Z,934.15
2018-02-13T11:15:39.294Z,934.14
2018-02-13T11:16:39.302Z,934.11
2018-02-13T11:17:39.309Z,934.09
2018-02-13T11:18:39.315Z,934.04
2018-02-13T11:19:39.322Z,934.03
2018-02-13T11:20:39.328Z,933.98
2018-02-13T11:21:39.335Z,933.95
2018-02-13T11:22:39.341Z,933.92
2018-02-13T11:23:39.348Z,933.87
2018-02-13T11:24:39.356Z,933.85
2018-02-13T11:25:39.360Z,933.81
2018-02-13T11:26:39.364Z,933.80
2018-02-13T11:27:39.371Z,933.78
2018-02-13T11:28:39.376Z,933.73
2018-02-13T11:29:39.381Z,933.67
2018-02-13T11:30:39.386Z,933.63
2018-02-13T11:31:39.390Z,933.60
2018-02-13T11:32:39.395Z,933.62
2018-02-13T11:33:39.399Z,933.57
2018-02-13T11:34:39.404Z,933.54
2018-02-13T11:35:39.406Z,933.47
2018-02-13T11:36:39.409Z,933.49
2018-02-13T11:37:39.415Z,933.50
2018-02-13T11:38:39.415Z,933.47
2018-02-13T11:39:39.417Z,933.45
2018-02-13T11:40:39.421Z,933.43
2018-02-13T11:41:39.423Z,933.38
2018-02-13T11:42:39.426Z,933.39
2018-02-13T11:43:39.429Z,933.40
2018-02-13T11:44:39.432Z,933.38
2018-02-13T11:45:39.432Z,933.38
2018-02-13T11:46:39.440Z,933.37
2018-02-13T11:47:39.438Z,933.34
2018-02-13T11:48:39.441Z,933.37
2018-02-13T11:49:39.444Z,933.30
2018-02-13T11:50:39.445Z,933.31
2018-02-13T11:51:39.448Z,933.29
2018-02-13T11:52:39.451Z,933.26
2018-02-13T11:53:39.455Z,933.26
2018-02-13T11:54:39.455Z,933.22
2018-02-13T11:55:39.459Z,933.20
2018-02-13T11:56:39.461Z,933.15
2018-02-13T11:57:39.462Z,933.14
2018-02-13T11:58:39.464Z,933.08
2018-02-13T11:59:39.467Z,933.12
2018-02-13T12:00:39.469Z,933.14
2018-02-13T12:01:39.472Z,933.13
2018-02-13T12:02:39.473Z,933.13
2018-02-13T12:03:39.475Z,933.04
2018-02-13T12:04:39.480Z,933.02
2018-02-13T12:05:39.487Z,933.08
2018-02-13T12:06:39.482Z,933.02
2018-02-13T12:07:39.483Z,933.05
2018-02-13T12:08:39.486Z,932.99
2018-02-13T12:09:39.489Z,932.96
2018-02-13T12:10:39.491Z,932.95
2018-02-13T12:11:39.493Z,932.95
2018-02-13T12:12:39.495Z,932.87
2018-02-13T12:13:39.496Z,932.90
2018-02-13T12:14:39.497Z,932.84
2018-02-13T12:15:39.500Z,932.78
2018-02-13T12:16:39.501Z,932.79
2018-02-13T12:17:39.503Z,932.71
2018-02-13T12:18:39.504Z,932.70
2018-02-13T12:19:39.505Z,932.74
2018-02-13T12:20:39.505Z,932.67
2018-02-13T12:21:39.506Z,932.74
2018-02-13T12:22:39.509Z,932.66
2018-02-13T12:23:39.506Z,932.65
2018-02-13T12:24:39.507Z,932.62
2018-02-13T12:25:39.512Z,932.66
2018-02-13T12:26:39.508Z,932.59
2018-02-13T12:27:39.508Z,932.59
2018-02-13T12:28:39.509Z,932.58